This is the latest recevied weather packets stored in our database for station/object WB8SKP-WX. If no packets are shown the sender has not sent any weather packets the latest 10 day(s).
| Time | Temp. | Humidity | Pressure | Rain* | Wind** | Luminosity | Snow |
|---|---|---|---|---|---|---|---|
| 1777688719 | 11.11° C | 70% | 999 hPa | 0 mm | - | - | - |
| 1777687489 | 12.22° C | 62% | 998.7 hPa | 0 mm | - | - | - |
| 1777686289 | 12.78° C | 58% | 998.6 hPa | 0 mm | - | - | - |
| 1777685059 | 13.33° C | 56% | 998.2 hPa | 0 mm | - | - | - |
| 1777683859 | 13.89° C | 53% | 998 hPa | 0 mm | - | - | - |
| 1777682659 | 14.44° C | 53% | 997.7 hPa | 0 mm | - | - | - |
| 1777681429 | 14.44° C | 50% | 997.3 hPa | 0 mm | - | - | - |
| 1777680229 | 15.56° C | 50% | 996.9 hPa | 0 mm | - | - | - |
| 1777679029 | 16.11° C | 47% | 996.6 hPa | 0 mm | - | - | - |
| 1777677828 | 16.11° C | 44% | 996.2 hPa | 0 mm | - | - | - |
| 1777676599 | 17.22° C | 42% | 996 hPa | 0 mm | - | - | - |
| 1777675398 | 17.78° C | 42% | 995.6 hPa | 0 mm | - | - | - |
| 1777674170 | 17.78° C | 39% | 995.4 hPa | 0 mm | - | - | - |
| 1777672968 | 16.67° C | 40% | 995.8 hPa | 0 mm | - | - | - |
| 1777671768 | 16.67° C | 38% | 995.6 hPa | 0 mm | - | - | - |
| 1777670538 | 16.67° C | 38% | 996 hPa | 0 mm | - | - | - |
| 1777669338 | 17.22° C | 39% | 996.1 hPa | 0 mm | - | - | - |
| 1777668108 | 17.22° C | 36% | 996.5 hPa | 0 mm | - | - | - |
| 1777666908 | 16.67° C | 38% | 996.8 hPa | 0 mm | - | - | - |
| 1777665708 | 16.67° C | 38% | 997 hPa | 0 mm | - | - | - |
| 1777664508 | 16.67° C | 35% | 997.5 hPa | 0 mm | - | - | - |
| 1777663308 | 16.67° C | 38% | 997.6 hPa | 0 mm | - | - | - |
| 1777662078 | 16.67° C | 38% | 997.6 hPa | 0 mm | - | - | - |
| 1777660878 | 16.67° C | 42% | 997.5 hPa | 0 mm | - | - | - |
| 1777659678 | 16.67° C | 40% | 997.6 hPa | 0 mm | - | - | - |
* Rain latest hour (hover to see other rain measurements)
** Current wind speed in m/s (hover to see current wind gust speed)